createdAt,value
2019-03-12T00:00:40.426Z,5.70
2019-03-12T00:03:10.711Z,12.30
2019-03-12T00:05:40.949Z,7.33
2019-03-12T00:08:11.107Z,6.57
2019-03-12T00:10:41.388Z,10.97
2019-03-12T00:13:11.756Z,13.90
2019-03-12T00:15:43.056Z,12.47
2019-03-12T00:18:13.221Z,8.80
2019-03-12T00:20:43.447Z,7.53
2019-03-12T00:23:13.783Z,8.60
2019-03-12T00:25:44.062Z,8.83
2019-03-12T00:28:14.568Z,9.40
2019-03-12T00:30:44.812Z,6.60
2019-03-12T00:33:15.241Z,8.53
2019-03-12T00:35:45.474Z,9.53
2019-03-12T00:38:15.717Z,7.90
2019-03-12T00:40:45.916Z,6.97
2019-03-12T00:43:16.127Z,7.60
2019-03-12T00:45:46.454Z,10.37
2019-03-12T00:48:16.784Z,5.13
2019-03-12T00:50:47.099Z,10.10
2019-03-12T00:53:17.665Z,6.23
2019-03-12T00:55:47.942Z,7.93
2019-03-12T00:58:18.367Z,9.43
2019-03-12T01:00:48.641Z,6.67
2019-03-12T01:03:18.964Z,7.60
2019-03-12T01:05:49.159Z,8.60
2019-03-12T01:08:19.473Z,9.43
2019-03-12T01:10:49.799Z,7.57
2019-03-12T01:13:20.466Z,5.77
2019-03-12T01:15:50.859Z,7.47
2019-03-12T01:18:21.263Z,8.17
2019-03-12T01:20:51.503Z,11.50
2019-03-12T01:23:21.728Z,11.23
2019-03-12T01:25:52.099Z,8.03
2019-03-12T01:28:22.411Z,5.13
2019-03-12T01:30:52.580Z,4.37
2019-03-12T01:33:41.455Z,6.67
2019-03-12T01:36:11.322Z,3.47
2019-03-12T01:38:41.299Z,8.17
2019-03-12T01:41:11.237Z,8.93
2019-03-12T01:43:41.094Z,3.37
2019-03-12T01:46:11.007Z,7.40
2019-03-12T01:48:40.895Z,3.93
2019-03-12T01:51:10.816Z,6.33
2019-03-12T01:53:40.774Z,5.80
2019-03-12T01:56:10.660Z,4.93
2019-03-12T01:58:40.559Z,10.40
2019-03-12T02:01:10.451Z,7.10
2019-03-12T02:03:40.316Z,8.37
2019-03-12T02:06:10.199Z,8.20
2019-03-12T02:08:40.115Z,5.67
2019-03-12T02:11:10.099Z,5.23
2019-03-12T02:13:40.052Z,3.70
2019-03-12T02:16:10.150Z,7.30
2019-03-12T02:18:40.026Z,3.83
2019-03-12T02:21:09.892Z,6.70
2019-03-12T02:23:39.784Z,7.43
2019-03-12T02:26:09.784Z,4.93
2019-03-12T02:28:39.685Z,6.53
2019-03-12T02:31:09.640Z,5.77
2019-03-12T02:33:39.623Z,4.67
2019-03-12T02:36:09.927Z,6.00
2019-03-12T02:38:39.811Z,5.90
2019-03-12T02:41:09.700Z,7.73
2019-03-12T02:43:39.851Z,4.33
2019-03-12T02:46:09.752Z,5.07
2019-03-12T02:48:40.111Z,5.83
2019-03-12T02:51:10.004Z,7.20
2019-03-12T02:53:39.932Z,8.27
2019-03-12T02:56:09.815Z,8.73
2019-03-12T02:58:39.717Z,5.83
2019-03-12T03:01:09.704Z,6.50
2019-03-12T03:03:39.572Z,5.70
2019-03-12T03:06:18.758Z,5.50
2019-03-12T03:08:48.657Z,6.27
2019-03-12T03:11:18.536Z,5.13
2019-03-12T03:13:48.424Z,5.03
2019-03-12T03:16:18.360Z,5.03
2019-03-12T03:18:48.255Z,7.73
2019-03-12T03:21:18.136Z,5.13
2019-03-12T03:23:48.019Z,5.97
2019-03-12T03:26:18.077Z,5.37
2019-03-12T03:28:47.963Z,7.00
2019-03-12T03:31:17.850Z,4.33
2019-03-12T03:33:47.792Z,5.60
2019-03-12T03:36:17.659Z,6.00
2019-03-12T03:38:47.568Z,5.03
2019-03-12T03:41:17.456Z,7.13
2019-03-12T03:43:47.424Z,4.90
2019-03-12T03:46:17.353Z,8.07
2019-03-12T03:48:47.207Z,6.63
2019-03-12T03:51:17.149Z,5.70
2019-03-12T03:53:47.128Z,4.53
2019-03-12T03:56:17.006Z,6.20
2019-03-12T03:58:47.356Z,8.03
2019-03-12T04:01:17.637Z,4.90
2019-03-12T04:03:47.773Z,5.77
2019-03-12T04:06:18.049Z,4.07
2019-03-12T04:08:48.360Z,6.03
2019-03-12T04:11:18.772Z,5.50
2019-03-12T04:13:49.351Z,4.73
2019-03-12T04:16:19.735Z,5.23
2019-03-12T04:18:50.096Z,5.80
2019-03-12T04:21:20.383Z,3.77
2019-03-12T04:23:50.696Z,5.63
2019-03-12T04:26:20.850Z,8.00
2019-03-12T04:28:51.268Z,5.43
2019-03-12T04:31:21.484Z,3.43
2019-03-12T04:34:11.304Z,6.80
2019-03-12T04:36:41.500Z,4.87
2019-03-12T04:39:11.695Z,5.73
2019-03-12T04:41:42.033Z,3.70
2019-03-12T04:44:12.290Z,8.07
2019-03-12T04:46:42.580Z,8.03
2019-03-12T04:49:13.028Z,9.43
2019-03-12T04:51:43.308Z,3.83
2019-03-12T04:54:13.758Z,3.73
2019-03-12T04:56:44.203Z,4.93
2019-03-12T04:59:14.509Z,5.90
2019-03-12T05:01:44.558Z,6.07
2019-03-12T05:04:14.952Z,3.40
2019-03-12T05:06:45.166Z,4.10
2019-03-12T05:09:15.431Z,4.80
2019-03-12T05:11:45.823Z,3.53
2019-03-12T05:14:42.163Z,6.80
2019-03-12T05:17:20.064Z,3.97
2019-03-12T05:19:50.519Z,5.47
2019-03-12T05:22:22.757Z,8.13
2019-03-12T05:24:52.932Z,15.77
2019-03-12T05:27:25.003Z,16.10
2019-03-12T05:29:54.970Z,10.40
2019-03-12T05:32:25.259Z,7.50
2019-03-12T05:34:55.609Z,12.70
2019-03-12T05:37:25.932Z,13.70
2019-03-12T05:39:56.327Z,6.87
2019-03-12T05:42:26.785Z,7.03
2019-03-12T05:44:57.008Z,6.83
2019-03-12T05:47:27.404Z,4.33
2019-03-12T05:50:09.332Z,6.47
2019-03-12T05:52:39.659Z,5.17
2019-03-12T05:55:10.139Z,4.93
2019-03-12T05:57:40.405Z,4.50
2019-03-12T06:00:11.837Z,4.33
2019-03-12T06:02:42.012Z,7.90
2019-03-12T06:05:12.303Z,6.73
2019-03-12T06:07:42.844Z,4.83
2019-03-12T06:10:13.681Z,6.17
2019-03-12T06:12:43.842Z,5.87
2019-03-12T06:15:14.315Z,8.57
2019-03-12T06:17:44.555Z,5.23
2019-03-12T06:20:15.178Z,6.33
2019-03-12T06:22:45.520Z,7.13
2019-03-12T06:25:16.216Z,5.80
2019-03-12T06:27:46.697Z,6.00
2019-03-12T06:30:17.093Z,13.97
2019-03-12T06:32:53.755Z,8.67
2019-03-12T06:35:43.006Z,6.13
2019-03-12T06:38:21.916Z,6.13
2019-03-12T06:41:06.304Z,19.37
2019-03-12T06:44:04.742Z,9.63
2019-03-12T06:46:57.687Z,10.30
2019-03-12T06:49:46.924Z,13.43
2019-03-12T06:52:52.890Z,9.63
2019-03-12T06:55:36.667Z,6.93
2019-03-12T06:58:23.975Z,15.40
2019-03-12T07:01:22.724Z,13.90
2019-03-12T07:04:14.858Z,10.97
2019-03-12T07:07:11.213Z,9.70
2019-03-12T07:10:06.993Z,13.13
2019-03-12T07:12:46.839Z,12.63
2019-03-12T07:15:52.977Z,11.37
2019-03-12T07:18:41.081Z,8.33
2019-03-12T07:21:39.345Z,8.67
2019-03-12T07:24:32.173Z,9.47
2019-03-12T07:27:21.749Z,8.43
2019-03-12T07:30:16.679Z,12.37
2019-03-12T07:33:18.978Z,9.23
2019-03-12T07:36:04.736Z,14.90
2019-03-12T07:38:57.163Z,13.87
2019-03-12T07:41:46.347Z,11.00
2019-03-12T07:44:25.988Z,6.30
2019-03-12T07:47:19.796Z,8.47
2019-03-12T07:50:08.929Z,8.57
2019-03-12T07:52:59.956Z,9.63
2019-03-12T07:55:54.871Z,8.53
2019-03-12T07:58:46.751Z,9.73
2019-03-12T08:01:38.620Z,12.57
2019-03-12T08:04:37.092Z,10.53
2019-03-12T08:07:26.078Z,9.90
2019-03-12T08:10:04.801Z,12.03
2019-03-12T08:12:46.643Z,8.13
2019-03-12T08:15:33.939Z,10.13
2019-03-12T08:18:23.135Z,11.97
2019-03-12T08:21:06.838Z,14.57
2019-03-12T08:23:54.676Z,9.33
2019-03-12T08:26:55.992Z,8.87
2019-03-12T08:29:48.255Z,9.57
2019-03-12T08:32:24.417Z,6.83
2019-03-12T08:35:11.404Z,7.83
2019-03-12T08:38:06.917Z,12.00
2019-03-12T08:40:56.684Z,10.17
2019-03-12T08:43:37.486Z,6.67
2019-03-12T08:46:25.168Z,19.27
2019-03-12T08:49:13.303Z,16.10
2019-03-12T08:52:17.420Z,10.30
2019-03-12T08:55:07.223Z,7.87
2019-03-12T08:57:55.102Z,11.03
2019-03-12T09:00:53.180Z,8.23
2019-03-12T09:03:48.566Z,12.77
2019-03-12T09:06:30.872Z,4.73
2019-03-12T09:09:09.855Z,7.13
2019-03-12T09:12:05.193Z,6.20
2019-03-12T09:14:49.014Z,5.97
2019-03-12T09:17:34.539Z,7.47
2019-03-12T09:20:24.102Z,8.83
2019-03-12T09:23:14.221Z,5.90
2019-03-12T09:26:12.774Z,6.50
2019-03-12T09:28:50.099Z,4.70
2019-03-12T09:31:40.723Z,6.87
2019-03-12T09:34:36.451Z,5.37
2019-03-12T09:37:21.880Z,4.90
2019-03-12T09:40:09.460Z,5.70
2019-03-12T09:43:02.748Z,10.13
2019-03-12T09:46:04.404Z,18.53
2019-03-12T09:48:59.997Z,14.90
2019-03-12T09:51:47.297Z,10.73
2019-03-12T09:54:36.281Z,9.30
2019-03-12T09:57:15.232Z,13.07
2019-03-12T09:59:56.895Z,15.23
2019-03-12T10:02:52.741Z,16.43
2019-03-12T10:05:38.592Z,10.70
2019-03-12T10:08:34.775Z,16.67
2019-03-12T10:11:25.632Z,14.17
2019-03-12T10:14:29.068Z,8.20
2019-03-12T10:17:18.266Z,4.10
2019-03-12T10:20:10.591Z,6.37
2019-03-12T10:22:51.068Z,7.20
2019-03-12T10:25:46.694Z,7.87
2019-03-12T10:28:35.647Z,7.63
2019-03-12T10:31:21.263Z,7.97
2019-03-12T10:34:10.442Z,11.23
2019-03-12T10:36:45.809Z,17.70
2019-03-12T10:40:10.118Z,6.27
2019-03-12T10:42:57.595Z,6.90
2019-03-12T10:45:59.156Z,8.30
2019-03-12T10:48:30.372Z,6.87
2019-03-12T10:51:00.800Z,10.07
2019-03-12T10:53:31.077Z,6.10
2019-03-12T10:56:01.223Z,5.93
2019-03-12T10:58:31.559Z,3.60
2019-03-12T11:01:01.854Z,3.70
2019-03-12T11:03:32.351Z,4.30
2019-03-12T11:06:02.594Z,5.03
2019-03-12T11:08:32.923Z,5.00
2019-03-12T11:11:03.143Z,5.43
2019-03-12T11:13:33.521Z,3.33
2019-03-12T11:16:03.793Z,6.57
2019-03-12T11:18:34.011Z,7.43
2019-03-12T11:21:04.146Z,4.40
2019-03-12T11:23:34.577Z,4.47
2019-03-12T11:26:05.887Z,5.53
2019-03-12T11:28:36.130Z,7.30
2019-03-12T11:31:06.657Z,7.60
2019-03-12T11:33:37.051Z,10.07
2019-03-12T11:36:07.721Z,9.07
2019-03-12T11:38:39.483Z,7.93
2019-03-12T11:41:09.909Z,3.37
2019-03-12T11:43:40.329Z,4.77
2019-03-12T11:46:10.850Z,7.87
2019-03-12T11:48:40.975Z,7.80
2019-03-12T11:51:11.359Z,8.10
2019-03-12T11:53:41.561Z,3.97
2019-03-12T11:56:12.037Z,3.80
2019-03-12T11:58:42.006Z,5.60
2019-03-12T12:01:12.423Z,4.73
2019-03-12T12:03:42.493Z,2.90
2019-03-12T12:06:12.499Z,3.27
2019-03-12T12:08:42.527Z,4.37
2019-03-12T12:11:12.479Z,3.13
2019-03-12T12:13:42.462Z,3.87
2019-03-12T12:16:12.507Z,3.40
2019-03-12T12:18:42.375Z,5.53
2019-03-12T12:21:12.923Z,3.70
2019-03-12T12:23:42.975Z,3.37
2019-03-12T12:26:12.908Z,5.10
2019-03-12T12:28:42.872Z,4.17
2019-03-12T12:31:12.782Z,3.30
2019-03-12T12:33:42.718Z,2.57
2019-03-12T12:36:12.803Z,2.00
2019-03-12T12:38:42.873Z,2.17
2019-03-12T12:41:12.953Z,3.30
2019-03-12T12:43:42.889Z,5.57
2019-03-12T12:46:12.763Z,1.87
2019-03-12T12:48:42.640Z,1.77
2019-03-12T12:51:12.563Z,3.00
2019-03-12T12:53:42.532Z,1.90
2019-03-12T12:56:12.487Z,3.30
2019-03-12T12:58:42.461Z,3.03
2019-03-12T13:01:12.601Z,3.03
2019-03-12T13:03:42.698Z,2.93
2019-03-12T13:06:12.827Z,3.73
2019-03-12T13:08:42.996Z,3.40
2019-03-12T13:11:13.007Z,2.63
2019-03-12T13:13:43.046Z,2.73
2019-03-12T13:16:24.502Z,7.07
2019-03-12T13:18:44.621Z,3.63
2019-03-12T13:21:14.637Z,3.23
2019-03-12T13:23:44.907Z,2.27
2019-03-12T13:26:14.800Z,2.33
2019-03-12T13:28:45.170Z,4.83
2019-03-12T13:31:15.470Z,2.17
2019-03-12T13:33:45.385Z,3.90
2019-03-12T13:36:18.310Z,2.80
2019-03-12T13:38:48.851Z,2.93
2019-03-12T13:41:18.949Z,1.93
2019-03-12T13:43:48.935Z,3.63
2019-03-12T13:46:18.906Z,3.07
2019-03-12T13:48:48.789Z,3.52
2019-03-12T13:51:18.968Z,4.75
2019-03-12T13:53:48.981Z,3.67
2019-03-12T13:56:19.209Z,4.55
2019-03-12T13:58:49.238Z,4.10
2019-03-12T14:01:19.159Z,5.28
2019-03-12T14:03:49.283Z,5.05
2019-03-12T14:06:19.500Z,2.92
2019-03-12T14:08:49.448Z,4.60
2019-03-12T14:11:19.534Z,3.77
2019-03-12T14:13:49.550Z,3.77
2019-03-12T14:16:19.703Z,4.70
2019-03-12T14:18:49.601Z,4.15
2019-03-12T14:21:19.783Z,4.92
2019-03-12T14:23:57.359Z,3.47
2019-03-12T14:26:27.360Z,4.42
2019-03-12T14:28:57.859Z,3.25
2019-03-12T14:31:28.245Z,6.33
2019-03-12T14:33:58.480Z,4.10
2019-03-12T14:36:28.620Z,5.12
2019-03-12T14:38:59.104Z,5.47
2019-03-12T14:41:29.897Z,6.22
2019-03-12T14:44:00.300Z,6.20
2019-03-12T14:46:30.303Z,7.78
2019-03-12T14:49:02.423Z,5.30
2019-03-12T14:52:28.648Z,5.33
2019-03-12T14:54:58.564Z,7.87
2019-03-12T14:57:28.635Z,5.43
2019-03-12T14:59:58.504Z,6.87
2019-03-12T15:02:28.541Z,6.93
2019-03-12T15:04:58.639Z,7.23
2019-03-12T15:07:28.567Z,8.10
2019-03-12T15:09:58.848Z,16.63
2019-03-12T15:12:28.967Z,10.30
2019-03-12T15:14:59.242Z,8.67
2019-03-12T15:17:29.716Z,7.00
2019-03-12T15:19:59.938Z,8.20
2019-03-12T15:22:30.063Z,5.63
2019-03-12T15:25:00.412Z,5.97
2019-03-12T15:27:30.684Z,10.40
2019-03-12T15:30:00.975Z,7.77
2019-03-12T15:32:31.257Z,5.53
2019-03-12T15:35:01.609Z,6.70
2019-03-12T15:37:31.852Z,7.83
2019-03-12T15:40:02.513Z,8.73
2019-03-12T15:42:32.959Z,5.10
2019-03-12T15:45:03.193Z,7.20
2019-03-12T15:47:38.398Z,5.83
2019-03-12T15:50:09.845Z,5.20
2019-03-12T15:52:38.227Z,3.70
2019-03-12T15:55:08.816Z,12.47
2019-03-12T15:57:39.211Z,6.10
2019-03-12T16:00:16.375Z,6.23
2019-03-12T16:02:46.411Z,9.67
2019-03-12T16:05:16.501Z,7.70
2019-03-12T16:07:46.464Z,4.17
2019-03-12T16:10:19.347Z,3.90
2019-03-12T16:12:48.219Z,6.30
2019-03-12T16:15:18.339Z,4.57
2019-03-12T16:17:48.836Z,3.97
2019-03-12T16:20:19.000Z,2.73
2019-03-12T16:22:48.904Z,1.97
2019-03-12T16:25:19.061Z,3.90
2019-03-12T16:27:49.144Z,1.23
2019-03-12T16:30:20.341Z,3.00
2019-03-12T16:32:50.282Z,2.57
2019-03-12T16:35:20.390Z,4.20
2019-03-12T16:37:50.448Z,4.03
2019-03-12T16:40:21.383Z,4.63
2019-03-12T16:42:51.294Z,4.77
2019-03-12T16:45:21.327Z,4.17
2019-03-12T16:47:51.226Z,4.23
2019-03-12T16:50:21.219Z,3.73
2019-03-12T16:52:51.232Z,2.10
2019-03-12T16:55:21.495Z,4.30
2019-03-12T16:57:51.397Z,2.97
2019-03-12T17:00:21.731Z,3.67
2019-03-12T17:02:51.771Z,6.10
2019-03-12T17:05:21.763Z,10.43
2019-03-12T17:07:51.671Z,13.33
2019-03-12T17:10:21.858Z,14.63
2019-03-12T17:12:51.784Z,8.10
2019-03-12T17:15:22.181Z,7.20
2019-03-12T17:17:52.248Z,9.27
2019-03-12T17:20:22.583Z,4.97
2019-03-12T17:22:52.694Z,7.93
2019-03-12T17:25:22.610Z,4.37
2019-03-12T17:27:52.732Z,4.40
2019-03-12T17:30:22.999Z,5.37
2019-03-12T17:32:53.055Z,2.93
2019-03-12T17:35:24.956Z,5.67
2019-03-12T17:37:54.948Z,4.93
2019-03-12T17:40:24.968Z,4.80
2019-03-12T17:42:54.934Z,6.97
2019-03-12T17:45:24.852Z,4.77
2019-03-12T17:47:54.775Z,5.93
2019-03-12T17:50:24.708Z,4.23
2019-03-12T17:52:54.804Z,4.57
2019-03-12T17:55:25.068Z,3.03
2019-03-12T17:57:56.485Z,4.03
2019-03-12T18:00:28.849Z,4.67
2019-03-12T18:02:59.132Z,5.27
2019-03-12T18:05:29.439Z,4.10
2019-03-12T18:08:00.822Z,3.53
2019-03-12T18:10:31.548Z,2.90
2019-03-12T18:13:01.772Z,4.63
2019-03-12T18:15:32.564Z,3.43
2019-03-12T18:18:04.475Z,3.27
2019-03-12T18:20:36.620Z,3.27
2019-03-12T18:23:06.929Z,3.43
2019-03-12T18:25:37.423Z,4.07
2019-03-12T18:28:07.692Z,2.20
2019-03-12T18:30:38.107Z,3.90
2019-03-12T18:33:10.970Z,2.60
2019-03-12T18:35:41.043Z,4.07
2019-03-12T18:38:11.174Z,9.20
2019-03-12T18:40:41.179Z,3.10
2019-03-12T18:43:14.500Z,2.83
2019-03-12T18:45:43.023Z,5.27
2019-03-12T18:48:14.173Z,3.17
2019-03-12T18:50:44.087Z,1.77
2019-03-12T18:53:14.509Z,2.00
2019-03-12T18:55:53.787Z,3.80
2019-03-12T18:58:23.795Z,1.97
2019-03-12T19:00:53.810Z,2.43
2019-03-12T19:03:23.690Z,5.27
2019-03-12T19:05:53.641Z,3.17
2019-03-12T19:08:24.323Z,5.47
2019-03-12T19:10:54.509Z,2.97
2019-03-12T19:13:24.779Z,3.60
2019-03-12T19:15:55.006Z,4.53
2019-03-12T19:18:24.875Z,4.90
2019-03-12T19:20:55.602Z,5.70
2019-03-12T19:23:25.785Z,4.67
2019-03-12T19:25:55.800Z,5.00
2019-03-12T19:28:25.824Z,5.07
2019-03-12T19:31:05.288Z,4.03
2019-03-12T19:33:35.480Z,4.77
2019-03-12T19:36:05.679Z,5.50
2019-03-12T19:38:35.681Z,4.90
2019-03-12T19:41:08.837Z,3.90
2019-03-12T19:43:39.284Z,3.73
2019-03-12T19:46:09.245Z,3.67
2019-03-12T19:48:39.158Z,2.77
2019-03-12T19:51:09.051Z,3.70
2019-03-12T19:53:39.093Z,4.83
2019-03-12T19:56:10.029Z,3.27
2019-03-12T19:58:41.997Z,3.60
2019-03-12T20:01:12.984Z,3.30
2019-03-12T20:03:43.661Z,3.43
2019-03-12T20:06:13.623Z,3.67
2019-03-12T20:08:43.528Z,3.97
2019-03-12T20:11:38.840Z,4.33
2019-03-12T20:14:40.563Z,5.70
2019-03-12T20:18:12.439Z,4.10
2019-03-12T20:21:22.260Z,3.23
2019-03-12T20:24:33.479Z,4.90
2019-03-12T20:27:39.275Z,5.83
2019-03-12T20:31:01.087Z,5.93
2019-03-12T20:34:08.750Z,3.67
2019-03-12T20:37:18.909Z,4.37
2019-03-12T20:40:33.174Z,4.17
2019-03-12T20:43:52.405Z,6.17
2019-03-12T20:47:13.014Z,4.23
2019-03-12T20:50:40.606Z,3.13
2019-03-12T20:53:46.576Z,3.33
2019-03-12T20:56:55.479Z,3.97
2019-03-12T21:00:03.713Z,3.50
2019-03-12T21:03:16.123Z,3.50
2019-03-12T21:06:28.015Z,7.50
2019-03-12T21:09:40.281Z,6.90
2019-03-12T21:12:45.023Z,4.63
2019-03-12T21:15:56.826Z,5.43
2019-03-12T21:19:18.134Z,5.37
2019-03-12T21:22:38.162Z,6.87
2019-03-12T21:26:07.470Z,6.07
2019-03-12T21:29:04.621Z,7.20
2019-03-12T21:31:34.780Z,7.40
2019-03-12T21:34:04.999Z,5.93
2019-03-12T21:36:35.254Z,7.67
2019-03-12T21:39:10.332Z,8.03
2019-03-12T21:41:40.544Z,7.13
2019-03-12T21:44:11.031Z,12.33
2019-03-12T21:46:41.402Z,9.23
2019-03-12T21:49:11.723Z,7.53
2019-03-12T21:51:41.981Z,4.83
2019-03-12T21:54:12.166Z,10.50
2019-03-12T21:56:42.402Z,7.00
2019-03-12T21:59:12.712Z,6.67
2019-03-12T22:01:43.243Z,8.23
2019-03-12T22:04:13.566Z,10.03
2019-03-12T22:06:44.097Z,6.70
2019-03-12T22:09:14.350Z,6.43
2019-03-12T22:11:44.652Z,6.47
2019-03-12T22:14:14.878Z,9.23
2019-03-12T22:16:47.815Z,10.13
2019-03-12T22:19:18.072Z,10.87
2019-03-12T22:22:25.159Z,11.53
2019-03-12T22:24:55.572Z,9.40
2019-03-12T22:27:25.806Z,7.13
2019-03-12T22:29:57.161Z,6.37
2019-03-12T22:32:27.384Z,7.07
2019-03-12T22:34:58.397Z,6.43
2019-03-12T22:37:28.791Z,6.13
2019-03-12T22:39:59.659Z,8.57
2019-03-12T22:42:29.908Z,5.83
2019-03-12T22:45:00.397Z,5.73
2019-03-12T22:47:30.556Z,5.27
2019-03-12T22:50:01.099Z,9.50
2019-03-12T22:52:31.282Z,6.07
2019-03-12T22:55:03.839Z,4.73
2019-03-12T22:57:33.979Z,3.97
2019-03-12T23:00:05.043Z,7.03
2019-03-12T23:02:35.485Z,5.57
2019-03-12T23:05:06.011Z,6.10
2019-03-12T23:07:36.259Z,5.60
2019-03-12T23:10:07.772Z,6.97
2019-03-12T23:12:37.995Z,9.80
2019-03-12T23:15:10.919Z,5.93
2019-03-12T23:17:41.204Z,4.17
2019-03-12T23:20:12.246Z,6.90
2019-03-12T23:22:43.579Z,6.27
2019-03-12T23:25:13.815Z,4.60
2019-03-12T23:27:44.226Z,9.37
2019-03-12T23:30:14.691Z,4.53
2019-03-12T23:32:45.997Z,5.97
2019-03-12T23:35:16.799Z,5.77
2019-03-12T23:37:47.011Z,8.17
2019-03-12T23:40:18.971Z,8.67
2019-03-12T23:42:49.351Z,7.80
2019-03-12T23:45:19.735Z,7.10
2019-03-12T23:47:50.698Z,3.73
2019-03-12T23:50:21.347Z,5.63
2019-03-12T23:52:51.663Z,7.77
2019-03-12T23:55:22.040Z,6.50
2019-03-12T23:57:52.982Z,11.23
